Altus Air Force Base
KLTS : now visible

Airfield :











YOU CAN JOIN US ON...

 
LOGIN :

Register | Disclaimer

   EN    FR    IT 

 









Legend :    VFR   Marginal VFR   IFR   Intensive IFR   Very Intensive IFR
Visi :
Ceiling :
>= 8 km
>= 3000ft
5 to 8 km
1000 to 3000 ft
1500m to 5 km
500 to 1000 ft
800 to 1500m
200 to 500 ft
< 800m
< 200 ft
Symbols :   Thunderstorms  Fog  Heavy snow  Heavy precipitations  Wind > 20 kt






- Airport Elevation : 1382 ft


KLTS - Altus Air Force Base

CURRENT METAR :
  • 221056Z 16015KT 8SM OVC004 05/05 A2997 RMK AO2A RAE15DZB31E32 SLP152 P0001 T00460046 $

EXPIRED METARs :
  • 221032Z 16013KT 6SM BR OVC004 05/05 A2998 RMK AO2A RAE15DZB31E32 SLP155 $
  • 221020Z 15015KT 7SM OVC004 05/05 A2998 RMK AO2A RAE15 SLP155 $
  • 220956Z 15016KT 7SM -RA OVC005 05/05 A2999 RMK AO2A CIG 004 RWY17L SLP158 P0003 T00450045 $
  • 220856Z 16019G22KT 7SM -RA BR OVC005 05/05 A3003 RMK AO2A SLP172 P0002 60003 T00460046 57024 $

TAF TAF KLTS
Valid from the 22 at 09:00 until the 23 at 15:00 UTC


220900Z 2209/2315 16010G15KT 8000 -RA BR OVC005 620357 540057 QNH2986INS
BECMG 2216/2217 18012KT 6000 -SHRA BR OVC003 510052 QNH2978INS
BECMG 2222/2223 VRB06KT 8000 BR OVC002 620802 QNH2981INS
BECMG 2302/2303 VRB06KT 8000 BR OVC003 QNH2986INS
BECMG 2305/2306 VRB06KT 3200 BR OVC003 QNH2990INS
TEMPO 2309/2312 0800 FG OVC001
BECMG 2313/2314 34010G15KT 9999 NSW FEW020 QNH2998INS TX10/2221Z TN04/2212Z



MET'MAP, your aeronautical weather chart ! - Copyright ORBIFLY December 2007 - Disclaimer

ORBIFLY MET'MAP TEAM :

Programming & Development : Alexandra Zaïnal
Concept & original design : Baudouin d'Aumeries
Assistance for programming : Marc-Olivier Méhu
Technical & hardware support : Manuel Goepfert

Contact : metmap@orbifly.com




SOURCES & CREDITS :

   NOAA       Earth
Advisory